Foxcroft Square, Pennsylvania
Current Conditions -  °F | °C
As of 12:54 PM on Saturday 25 Oct 2014 (Local Time) from KPNE Reporting Station
Clear Clear  
Wind Chill: 69°   Ceiling: Unl
Heat Index: 69°   Visibility: 10mi
Dew Point: 41°   Wind: 7mph
Humidity: 36%   Direction: 290°WNW
Pressure: 29.82"   Gusts: NA
Location:  40.1039°N, 75.1072°W
Report Text: KPNE 251654Z 29006KT 10SM CLR 21/05 A2982 RMK AO2 PRESFR SLP098 T02060050
Loading
Personal Weather Stations






























Interactive Weather Map
Tropical Storm Tracking
New forecast layout! Learn more

10-Day Weather Forecast

Advertisements
Track Severe Weather on mobile